^^
Datos históricos de la estación: Murcia-Puente Tocinos
Diario Informe para Junio 10, 2019 Unidades:  Métrico    Ingés   Ambas
Diario Semanal Mensual Anual
  Máxima: Mínima: Promedio:
Temperatura: 16.8 °C 12.6 °C 14.6 °C
Punto de rocio: 9.3 °C -1.2 °C 3.4 °C
Humedad: 78.1% 30% 49%
Velocidad viento: 35.9km/h 2.9km/h 19km/h
Racha viento: 69.2km/h - -
Viento- - OSO
Presión: 1013.7 hPa 1010.7 hPa -
Precipitación: 0.3 mm    
 
 
Tabla de datos para Junio 10, 2019
Hora Temperatura Punto de rocio Presión Viento Velocidad viento Racha viento Humedad Intensidad lluvia(por hora) Nubes
00:04 12.9 °C 9.2 °C 1013.6 hPa SE 3.8 km/h 8 km/h 78.1% 0.0 mm
00:09 12.9 °C 9.1 °C 1013.6 hPa SSE 3.9 km/h 8 km/h 77.9% 0.0 mm
00:14 13 °C 9.1 °C 1013.4 hPa SSE 3.8 km/h 8 km/h 77.3% 0.0 mm
00:19 13.1 °C 9.2 °C 1013.4 hPa SSE 3.9 km/h 8.4 km/h 77.2% 0.0 mm
00:24 13.1 °C 9 °C 1013.4 hPa SSE 4.5 km/h 9.3 km/h 76.3% 0.0 mm
00:29 13.2 °C 9.1 °C 1013.3 hPa SSE 4.7 km/h 9.7 km/h 76.1% 0.0 mm
00:34 13.2 °C 9.3 °C 1013.3 hPa SE 6.1 km/h 9.7 km/h 76.9% 0.0 mm
00:39 13.2 °C 9.3 °C 1013.3 hPa SE 6.5 km/h 11.1 km/h 76.9% 0.0 mm
00:44 13.1 °C 9 °C 1013.1 hPa SSE 5.9 km/h 11.3 km/h 76% 0.0 mm
00:49 13.1 °C 8.9 °C 1013.1 hPa SSE 5.8 km/h 9.7 km/h 76% 0.0 mm
00:54 13.1 °C 8.9 °C 1013.1 hPa SSE 4.9 km/h 8 km/h 76% 0.0 mm
00:59 13.1 °C 8.9 °C 1013.1 hPa SSE 4.7 km/h 5.8 km/h 76% 0.0 mm
01:04 13.1 °C 8.9 °C 1013.1 hPa SSE 3.1 km/h 7.6 km/h 75.6% 0.0 mm
01:09 13.1 °C 8.8 °C 1013.1 hPa Sur 2.9 km/h 8 km/h 75% 0.0 mm
01:14 13.1 °C 8.7 °C 1012.9 hPa SSE 4.4 km/h 8 km/h 74.5% 0.0 mm
01:19 13.2 °C 8.7 °C 1012.9 hPa SSE 4.7 km/h 8 km/h 74% 0.0 mm
01:24 13.2 °C 8.7 °C 1012.9 hPa SSE 3.5 km/h 7.4 km/h 74.1% 0.0 mm
01:29 13.2 °C 8.9 °C 1012.8 hPa Sur 3.2 km/h 8 km/h 75% 0.0 mm
01:34 13.3 °C 8.8 °C 1012.8 hPa SSO 3.2 km/h 8 km/h 74.5% 0.0 mm
01:39 13.3 °C 8.8 °C 1012.8 hPa Sur 3.2 km/h 8.4 km/h 74% 0.0 mm
01:44 13.4 °C 8.8 °C 1012.7 hPa SSE 3.7 km/h 9.3 km/h 74% 0.0 mm
01:49 13.4 °C 9 °C 1012.7 hPa SSE 3.9 km/h 11.1 km/h 74.9% 0.0 mm
01:54 13.4 °C 9 °C 1012.7 hPa SSE 6 km/h 11.3 km/h 75% 0.0 mm
01:59 13.3 °C 9 °C 1012.6 hPa SSE 6.5 km/h 9.7 km/h 75% 0.0 mm
02:04 13.3 °C 8.9 °C 1012.6 hPa SE 5.9 km/h 9.7 km/h 75% 0.0 mm
02:09 13.3 °C 8.9 °C 1012.6 hPa SE 5.8 km/h 9.7 km/h 75% 0.0 mm
02:14 13.3 °C 8.9 °C 1012.6 hPa SE 4.9 km/h 8.4 km/h 74.9% 0.0 mm
02:19 13.2 °C 8.7 °C 1012.6 hPa SE 4.7 km/h 8 km/h 74% 0.0 mm
02:24 13.3 °C 8.9 °C 1012.6 hPa SE 4.7 km/h 9.3 km/h 74.8% 0.0 mm
02:29 13.3 °C 8.9 °C 1012.5 hPa ESE 4.7 km/h 9.7 km/h 75% 0.0 mm
02:34 13.3 °C 9 °C 1012.6 hPa ESE 4.7 km/h 8.4 km/h 75.1% 0.0 mm
02:39 13.3 °C 9 °C 1012.6 hPa SE 4.7 km/h 11.1 km/h 75.4% 0.0 mm
02:44 13.2 °C 8.9 °C 1012.6 hPa SE 6.5 km/h 11.9 km/h 75.2% 0.0 mm
02:49 13.2 °C 8.7 °C 1012.6 hPa SE 6.9 km/h 11.3 km/h 74.4% 0.0 mm
02:54 13.2 °C 8.7 °C 1012.6 hPa SE 6.9 km/h 11.3 km/h 74% 0.0 mm
02:59 13.2 °C 8.7 °C 1012.2 hPa SSE 6.9 km/h 11.9 km/h 74% 0.0 mm
03:04 13.2 °C 8.7 °C 1012.2 hPa SSE 6.9 km/h 11.3 km/h 74.2% 0.0 mm
03:09 13.2 °C 8.7 °C 1012.2 hPa Sur 6.9 km/h 9.7 km/h 74.1% 0.0 mm
03:14 13.2 °C 8.7 °C 1012.1 hPa SSE 6.9 km/h 12.2 km/h 74% 0.0 mm
03:19 13.2 °C 8.7 °C 1012.1 hPa SSE 6.9 km/h 13 km/h 74% 0.0 mm
03:24 13.1 °C 8.6 °C 1012.1 hPa SSE 8.4 km/h 15.6 km/h 74% 0.0 mm
03:29 13.1 °C 8.7 °C 1011.7 hPa Sur 8.7 km/h 16.1 km/h 74.9% 0.0 mm
03:34 13.2 °C 8.5 °C 1011.7 hPa Sur 9.4 km/h 14.8 km/h 73.6% 0.0 mm
03:39 13.3 °C 8.5 °C 1011.7 hPa SSE 9.5 km/h 14.8 km/h 72.9% 0.0 mm
03:44 13.3 °C 8.6 °C 1011.5 hPa Sur 9.9 km/h 14.8 km/h 73% 0.0 mm
03:49 13.2 °C 8.5 °C 1011.5 hPa SE 10 km/h 14.5 km/h 73% 0.0 mm
03:54 13.2 °C 8.6 °C 1011.6 hPa NNE 7.5 km/h 13.7 km/h 73.6% 0.0 mm
03:59 13 °C 8.6 °C 1011.6 hPa NNE 6.9 km/h 14.5 km/h 74.9% 0.0 mm
04:04 12.8 °C 8.7 °C 1011.6 hPa NO 6.9 km/h 11.3 km/h 76% 0.0 mm
04:09 12.8 °C 8.6 °C 1011.7 hPa NO 6.9 km/h 8.4 km/h 76% 0.0 mm
04:14 12.7 °C 8.6 °C 1011.7 hPa NO 4.4 km/h 8 km/h 76% 0.0 mm
04:19 12.7 °C 8.8 °C 1011.7 hPa Oeste 3.9 km/h 9.5 km/h 77% 0.0 mm
04:24 12.7 °C 8.8 °C 1011.7 hPa ONO 3.9 km/h 9.7 km/h 77.3% 0.0 mm
04:29 12.7 °C 8.9 °C 1011.6 hPa SSO 3.9 km/h 12.2 km/h 77.7% 0.0 mm
04:34 12.7 °C 8.9 °C 1011.6 hPa SO 4.8 km/h 13 km/h 77.5% 0.0 mm
04:39 12.7 °C 8.9 °C 1011.6 hPa SSO 5 km/h 13 km/h 78% 0.0 mm
04:44 12.7 °C 8.8 °C 1011.2 hPa SSO 6.6 km/h 11.9 km/h 77.3% 0.0 mm
04:49 12.8 °C 8.6 °C 1011.2 hPa SSO 6.9 km/h 14.8 km/h 75.3% 0.0 mm
04:54 13.1 °C 8.8 °C 1011.4 hPa SSO 8.4 km/h 14.5 km/h 75% 0.0 mm
04:59 13.2 °C 8.7 °C 1011.4 hPa SSO 8.7 km/h 13 km/h 74.3% 0.0 mm
05:04 13.3 °C 8.6 °C 1011.4 hPa SSO 8.4 km/h 12.9 km/h 73.3% 0.0 mm
05:09 13.3 °C 8.5 °C 1011.4 hPa SSO 8.4 km/h 14.8 km/h 72.5% 0.0 mm
05:14 13.4 °C 8.3 °C 1011.4 hPa Sur 7.2 km/h 14.5 km/h 71% 0.0 mm
05:19 13.4 °C 8.5 °C 1011.4 hPa SSO 6.9 km/h 11.3 km/h 72% 0.0 mm
05:24 13.3 °C 8.4 °C 1011.4 hPa SO 6.9 km/h 18 km/h 72.2% 0.0 mm
05:29 13.4 °C 8 °C 1011.4 hPa Oeste 6.9 km/h 25.9 km/h 69.9% 0.0 mm
05:34 14.5 °C 6.8 °C 1011.4 hPa ONO 9.4 km/h 52.1 km/h 60.1% 0.3 mm
05:39 15.5 °C 6.3 °C 1011.4 hPa Oeste 10 km/h 51.5 km/h 54.3% 0.3 mm
05:44 15.7 °C 6.1 °C 1011.1 hPa Oeste 21.9 km/h 53.9 km/h 52.8% 0.3 mm
05:49 15.8 °C 6.2 °C 1011.1 hPa Oeste 24.5 km/h 53.1 km/h 53% 0.3 mm
05:54 15.7 °C 6.2 °C 1011.4 hPa Oeste 21.6 km/h 35.4 km/h 53% 0.3 mm
05:59 15.6 °C 6.2 °C 1011.4 hPa ONO 20.9 km/h 35.4 km/h 53.5% 0.3 mm
06:04 15.5 °C 6.2 °C 1011.4 hPa ONO 20.9 km/h 37.8 km/h 54% 0.3 mm
06:09 15.5 °C 6.1 °C 1011.6 hPa Oeste 20.9 km/h 42.6 km/h 53.4% 0.3 mm
06:14 15.6 °C 6.1 °C 1011.6 hPa ONO 23.1 km/h 41.8 km/h 53% 0.3 mm
06:19 15.4 °C 5.9 °C 1011.8 hPa ONO 23.7 km/h 37 km/h 53% 0.3 mm
06:24 15.3 °C 5.9 °C 1011.8 hPa ONO 21.4 km/h 29.6 km/h 53.2% 0.3 mm
06:29 15.2 °C 5.7 °C 1011.8 hPa ONO 20.9 km/h 35.2 km/h 52.9% 0.3 mm
06:34 15.2 °C 5.4 °C 1011.8 hPa ONO 18.8 km/h 35.4 km/h 52% 0.3 mm
06:39 15.1 °C 5.3 °C 1011.8 hPa ONO 18.4 km/h 33.5 km/h 52% 0.0 mm
06:44 15 °C 5.2 °C 1011.7 hPa ONO 19.6 km/h 34.3 km/h 52% 0.0 mm
06:49 14.9 °C 5.1 °C 1011.7 hPa ONO 19.8 km/h 38.9 km/h 52% 0.0 mm
06:54 14.8 °C 5 °C 1011.7 hPa ONO 20.7 km/h 38.6 km/h 51.6% 0.0 mm
06:59 14.8 °C 4.7 °C 1011.7 hPa ONO 20.9 km/h 37 km/h 51% 0.0 mm
07:04 14.7 °C 4.6 °C 1011.7 hPa ONO 19.9 km/h 35.2 km/h 50.9% 0.0 mm
07:09 14.7 °C 4.4 °C 1011.7 hPa ONO 19.8 km/h 35.4 km/h 50% 0.0 mm
07:14 14.7 °C 4.4 °C 1011.6 hPa ONO 18.6 km/h 35.4 km/h 50% 0.0 mm
07:19 14.6 °C 4.2 °C 1011.6 hPa Oeste 18.4 km/h 30.6 km/h 49.6% 0.0 mm
07:24 14.6 °C 3.8 °C 1011.6 hPa Oeste 15.5 km/h 37.8 km/h 48.4% 0.0 mm
07:29 14.5 °C 3.6 °C 1011.6 hPa ONO 14.8 km/h 37 km/h 48% 0.0 mm
07:34 14.4 °C 3.5 °C 1011.6 hPa ONO 14.1 km/h 24.1 km/h 48% 0.0 mm
07:39 14.3 °C 3.2 °C 1011.9 hPa ONO 14 km/h 28.2 km/h 47.3% 0.0 mm
07:44 14.3 °C 3.2 °C 1011.9 hPa Oeste 13.2 km/h 32.3 km/h 47.4% 0.0 mm
07:49 14.3 °C 3.4 °C 1011.9 hPa Oeste 13 km/h 33.8 km/h 48% 0.0 mm
07:54 14.2 °C 3.5 °C 1012.0 hPa ONO 14.5 km/h 28.2 km/h 48.6% 0.0 mm
07:59 14.2 °C 3.6 °C 1012.0 hPa ONO 14.8 km/h 37 km/h 49% 0.0 mm
08:04 14.2 °C 3.4 °C 1012.0 hPa ONO 18.5 km/h 42.6 km/h 48.4% 0.0 mm
08:09 14.2 °C 3.3 °C 1012.2 hPa ONO 19 km/h 44.9 km/h 47.9% 0.0 mm
08:14 14.2 °C 3.3 °C 1012.2 hPa ONO 23.6 km/h 45.1 km/h 48% 0.0 mm
08:19 14.1 °C 3.2 °C 1012.2 hPa ONO 24.5 km/h 46.3 km/h 48% 0.0 mm
08:24 13.9 °C 3.1 °C 1012.3 hPa ONO 23.8 km/h 52.1 km/h 48% 0.0 mm
08:29 13.8 °C 3 °C 1012.3 hPa ONO 23.7 km/h 52.1 km/h 48% 0.0 mm
08:34 13.7 °C 3.1 °C 1012.3 hPa Oeste 24.9 km/h 51.5 km/h 48.7% 0.0 mm
08:39 13.6 °C 3.2 °C 1012.6 hPa Oeste 25.1 km/h 47.8 km/h 49.5% 0.0 mm
08:44 13.4 °C 3.3 °C 1012.6 hPa ONO 24.6 km/h 48.3 km/h 50.5% 0.0 mm
08:49 13.3 °C 3.4 °C 1012.6 hPa ONO 24.5 km/h 52.6 km/h 51% 0.0 mm
08:54 13.3 °C 3.4 °C 1012.6 hPa ONO 26.6 km/h 53.1 km/h 51.1% 0.0 mm
08:59 13.3 °C 3.5 °C 1012.5 hPa ONO 27 km/h 46.3 km/h 51.5% 0.0 mm
09:04 13.3 °C 3.5 °C 1012.5 hPa ONO 26.4 km/h 46.7 km/h 51.3% 0.0 mm
09:09 13.3 °C 3.4 °C 1012.6 hPa ONO 26.2 km/h 45.1 km/h 51% 0.0 mm
09:14 13.4 °C 3.4 °C 1012.6 hPa ONO 23.8 km/h 45.1 km/h 51% 0.0 mm
09:19 13.4 °C 3.5 °C 1012.6 hPa ONO 23.3 km/h 44.4 km/h 51% 0.0 mm
09:24 13.6 °C 3.4 °C 1013.1 hPa ONO 24.8 km/h 45.1 km/h 50.2% 0.0 mm
09:29 13.7 °C 3.5 °C 1013.1 hPa ONO 25.1 km/h 41.8 km/h 50% 0.0 mm
09:34 13.9 °C 3.5 °C 1013.1 hPa Oeste 22.3 km/h 44.4 km/h 49.6% 0.0 mm
09:39 14.1 °C 3.4 °C 1013.2 hPa ONO 21.7 km/h 45.1 km/h 48.7% 0.0 mm
09:44 14.2 °C 3.3 °C 1013.2 hPa ONO 22.4 km/h 45.1 km/h 47.9% 0.0 mm
09:49 14.3 °C 2.9 °C 1013.2 hPa ONO 22.5 km/h 42.6 km/h 46.3% 0.0 mm
09:54 14.4 °C 2.8 °C 1013.5 hPa ONO 24.1 km/h 66.8 km/h 45.7% 0.0 mm
09:59 14.4 °C 2.6 °C 1013.5 hPa ONO 24.5 km/h 67.6 km/h 45% 0.0 mm
10:04 14.4 °C 2.6 °C 1013.5 hPa ONO 33.7 km/h 66 km/h 45% 0.0 mm
10:09 14.4 °C 2.3 °C 1013.5 hPa ONO 35.2 km/h 56.5 km/h 43.8% 0.0 mm
10:14 14.4 °C 2.2 °C 1013.2 hPa ONO 28.7 km/h 56.3 km/h 43.8% 0.0 mm
10:19 14.5 °C 2.2 °C 1013.2 hPa ONO 27.4 km/h 56 km/h 43.5% 0.0 mm
10:24 14.4 °C 2.3 °C 1013.5 hPa ONO 30.1 km/h 56.3 km/h 44% 0.0 mm
10:29 14.4 °C 2.3 °C 1013.5 hPa Oeste 30.6 km/h 56.3 km/h 44% 0.0 mm
10:34 14.6 °C 2.4 °C 1013.5 hPa ONO 32 km/h 54.2 km/h 43.8% 0.0 mm
10:39 14.7 °C 2.2 °C 1013.5 hPa ONO 32.4 km/h 54.7 km/h 42.9% 0.0 mm
10:44 14.7 °C 2 °C 1013.5 hPa ONO 28 km/h 52.1 km/h 42.4% 0.0 mm
10:49 14.7 °C 2.1 °C 1013.5 hPa ONO 27 km/h 51.5 km/h 42.6% 0.0 mm
10:54 14.7 °C 2 °C 1013.5 hPa ONO 24.3 km/h 41.8 km/h 42.3% 0.0 mm
10:59 14.8 °C 1.9 °C 1013.5 hPa ONO 23.7 km/h 38.9 km/h 42% 0.0 mm
11:04 14.8 °C 1.7 °C 1013.5 hPa ONO 22.7 km/h 50.4 km/h 41.2% 0.0 mm
11:09 14.8 °C 1.6 °C 1013.5 hPa ONO 22.5 km/h 49.9 km/h 41% 0.0 mm
11:14 14.8 °C 1.7 °C 1013.5 hPa ONO 26.5 km/h 48.1 km/h 41% 0.0 mm
11:19 14.8 °C 1.4 °C 1013.5 hPa ONO 27.4 km/h 50.1 km/h 40.2% 0.0 mm
11:24 14.8 °C 1.5 °C 1013.5 hPa ONO 28 km/h 49.9 km/h 40.3% 0.0 mm
11:29 15 °C 1.5 °C 1013.3 hPa Oeste 28.2 km/h 48.1 km/h 40% 0.0 mm
11:34 15.1 °C 1.5 °C 1013.3 hPa Oeste 25.6 km/h 55.5 km/h 39.8% 0.0 mm
11:39 15.2 °C 1.3 °C 1013.3 hPa ONO 25.1 km/h 56.3 km/h 38.8% 0.0 mm
11:44 15.2 °C 0.7 °C 1013.2 hPa ONO 27.6 km/h 51 km/h 37.3% 0.0 mm
11:49 15.2 °C 0.7 °C 1013.2 hPa Oeste 28.2 km/h 63.2 km/h 37.3% 0.0 mm
11:54 15.1 °C 0.4 °C 1013.2 hPa ONO 33.5 km/h 62.8 km/h 36.7% 0.0 mm
11:59 15.2 °C 0.2 °C 1013.1 hPa ONO 34.6 km/h 57.9 km/h 36% 0.0 mm
12:04 15.3 °C 0.3 °C 1013.1 hPa ONO 35.7 km/h 57.5 km/h 36% 0.0 mm
12:09 15.3 °C 0.4 °C 1013.1 hPa ONO 35.9 km/h 57.9 km/h 36.1% 0.0 mm
12:14 15.5 °C -0.3 °C 1012.9 hPa ONO 32.4 km/h 59.2 km/h 34.1% 0.0 mm
12:19 15.5 °C 0 °C 1012.9 hPa ONO 31.7 km/h 59.5 km/h 34.7% 0.0 mm
12:24 15.7 °C 0.2 °C 1013.0 hPa ONO 32.6 km/h 59.2 km/h 35% 0.0 mm
12:29 15.6 °C 0.4 °C 1013.0 hPa ONO 32.8 km/h 59.5 km/h 35.4% 0.0 mm
12:34 15.7 °C 0.5 °C 1013.0 hPa Oeste 29.7 km/h 50.4 km/h 35.4% 0.0 mm
12:39 15.9 °C 0.3 °C 1013.0 hPa ONO 29.1 km/h 50.1 km/h 34.7% 0.0 mm
12:44 16.1 °C -0.1 °C 1012.7 hPa ONO 24.4 km/h 45.1 km/h 33.2% 0.0 mm
12:49 15.9 °C -0.3 °C 1012.7 hPa ONO 23.3 km/h 55.5 km/h 33.1% 0.0 mm
12:54 16 °C 0.1 °C 1012.7 hPa ONO 29.4 km/h 56.3 km/h 33.9% 0.0 mm
12:59 16.2 °C 0.2 °C 1012.2 hPa ONO 30.6 km/h 48.1 km/h 33.9% 0.0 mm
13:04 16.2 °C -0.1 °C 1012.2 hPa ONO 26.3 km/h 48.3 km/h 33% 0.0 mm
13:09 16.3 °C -0.3 °C 1012.2 hPa ONO 25.6 km/h 57.9 km/h 32.4% 0.0 mm
13:14 16.2 °C -0.9 °C 1011.8 hPa ONO 29.1 km/h 57.9 km/h 31.1% 0.0 mm
13:19 16.2 °C -1.2 °C 1011.8 hPa ONO 29.8 km/h 59.2 km/h 30.3% 0.0 mm
13:24 16.2 °C -1 °C 1012.0 hPa ONO 31.9 km/h 59.5 km/h 30.8% 0.0 mm
13:29 16.4 °C -0.9 °C 1012.0 hPa ONO 32.4 km/h 50.4 km/h 30.7% 0.0 mm
13:34 16.4 °C -1.2 °C 1012.0 hPa ONO 26.8 km/h 55.5 km/h 30% 0.0 mm
13:39 16.5 °C -1.2 °C 1012.0 hPa Oeste 25.6 km/h 56.3 km/h 30% 0.0 mm
13:44 16.5 °C -1.1 °C 1011.5 hPa Oeste 27 km/h 46.7 km/h 30.1% 0.0 mm
13:49 16.5 °C -1 °C 1011.5 hPa ONO 27.4 km/h 55.5 km/h 30.3% 0.0 mm
13:54 16.5 °C -1.1 °C 1011.5 hPa ONO 28.8 km/h 61.2 km/h 30% 0.0 mm
13:59 16.7 °C -1 °C 1011.2 hPa ONO 29.1 km/h 61.2 km/h 30.1% 0.0 mm
14:04 16.7 °C -1 °C 1011.2 hPa Oeste 29.1 km/h 57.5 km/h 30% 0.0 mm
14:09 16.7 °C -0.9 °C 1011.2 hPa ONO 29.1 km/h 57.9 km/h 30.2% 0.0 mm
14:14 16.7 °C -0.8 °C 1011.1 hPa ONO 29.7 km/h 48.3 km/h 30.4% 0.0 mm
14:19 16.8 °C -0.7 °C 1011.1 hPa ONO 29.8 km/h 52.6 km/h 30.4% 0.0 mm
14:24 16.8 °C -0.9 °C 1011.1 hPa ONO 27.8 km/h 53.1 km/h 30% 0.0 mm
14:29 16.8 °C -0.9 °C 1011.1 hPa ONO 27.4 km/h 51.5 km/h 30% 0.0 mm
14:34 16.7 °C -1 °C 1011.1 hPa ONO 30.3 km/h 62.9 km/h 30% 0.0 mm
14:39 16.7 °C -1 °C 1011.3 hPa ONO 30.9 km/h 62.8 km/h 30% 0.0 mm
14:44 16.6 °C -0.7 °C 1011.3 hPa ONO 32.5 km/h 57.5 km/h 30.9% 0.0 mm
14:49 16.7 °C -0.2 °C 1011.3 hPa ONO 32.8 km/h 57.9 km/h 31.7% 0.0 mm
14:54 16.7 °C -0.1 °C 1011.3 hPa Oeste 32.8 km/h 61.8 km/h 32.1% 0.0 mm
14:59 16.7 °C -0.4 °C 1010.9 hPa ONO 32.8 km/h 61.2 km/h 31.3% 0.0 mm
15:04 16.7 °C -0.4 °C 1010.9 hPa ONO 34.4 km/h 69 km/h 31.3% 0.0 mm
15:09 16.8 °C -0.4 °C 1010.9 hPa ONO 34.6 km/h 69.2 km/h 31.2% 0.0 mm
15:14 16.7 °C -0.5 °C 1010.7 hPa ONO 33.7 km/h 65.2 km/h 31% 0.0 mm
15:19 16.7 °C -0.5 °C 1010.7 hPa Oeste 33.5 km/h 64.4 km/h 31% 0.0 mm
15:24 16.8 °C -0.2 °C 1010.9 hPa ONO 35.5 km/h 58.3 km/h 31.7% 0.0 mm
15:29 16.7 °C -0.1 °C 1010.9 hPa ONO 35.9 km/h 59.5 km/h 32% 0.0 mm
15:34 16.7 °C -0.1 °C 1011.0 hPa ONO 33.3 km/h 56.3 km/h 32% 0.0 mm
15:39 16.7 °C -0.1 °C 1011.0 hPa ONO 32.8 km/h 61.2 km/h 32% 0.0 mm
15:44 16.7 °C 0 °C 1011.0 hPa ONO 32.4 km/h 63.2 km/h 32.5% 0.0 mm
15:49 16.6 °C 0.2 °C 1011.0 hPa ONO 32.4 km/h 62.8 km/h 33% 0.0 mm
15:54 16.6 °C 0.2 °C 1011.0 hPa ONO 32.8 km/h 56.5 km/h 33% 0.0 mm
15:59 16.6 °C 0.6 °C 1011.0 hPa ONO 32.8 km/h 56.3 km/h 34% 0.0 mm
16:04 16.6 °C 0.7 °C 1011.0 hPa ONO 30.2 km/h 57.5 km/h 34% 0.0 mm
16:09 16.6 °C 0.8 °C 1011.3 hPa ONO 29.8 km/h 57.9 km/h 34.5% 0.0 mm
16:14 16.5 °C 1 °C 1011.3 hPa Oeste 28.4 km/h 44.4 km/h 35% 0.0 mm
16:19 16.4 °C 0.9 °C 1011.3 hPa ONO 28.2 km/h 48.1 km/h 35% 0.0 mm
16:24 16.4 °C 0.9 °C 1011.6 hPa ONO 28.2 km/h 55.5 km/h 35% 0.0 mm
16:29 16.3 °C 0.8 °C 1011.6 hPa ONO 28.2 km/h 56.3 km/h 35.1% 0.0 mm
16:34 16.3 °C 1 °C 1011.6 hPa ONO 28.6 km/h 49.9 km/h 35.4% 0.0 mm
16:39 16.3 °C 0.9 °C 1011.7 hPa Oeste 28.6 km/h 48.3 km/h 35.4% 0.0 mm
16:44 16.3 °C 0.8 °C 1011.7 hPa ONO 25.7 km/h 46.8 km/h 35% 0.0 mm
16:49 16.2 °C 0.7 °C 1011.7 hPa Oeste 25.1 km/h 46.7 km/h 35% 0.0 mm
16:54 16.1 °C 0.6 °C 1011.7 hPa ONO 23.9 km/h 53.8 km/h 35% 0.0 mm
16:59 16.1 °C 0.6 °C 1011.5 hPa Oeste 23.7 km/h 53.1 km/h 35.1% 0.0 mm
17:04 16.1 °C 0.7 °C 1011.5 hPa ONO 23.4 km/h 44.4 km/h 35.2% 0.0 mm
17:09 16.1 °C 0.6 °C 1011.5 hPa Oeste 23.3 km/h 45.1 km/h 35% 0.0 mm
17:14 16.1 °C 0.6 °C 1011.4 hPa Oeste 22 km/h 37.8 km/h 35% 0.0 mm
17:19 16.2 °C 0.7 °C 1011.8 hPa Oeste 21.7 km/h 37 km/h 35% 0.0 mm
17:24 16.2 °C 0.7 °C 1011.8 hPa Oeste 17.1 km/h 27.8 km/h 35% 0.0 mm
17:29 16.2 °C 0.7 °C 1011.8 hPa Oeste 16.1 km/h 33.3 km/h 35% 0.0 mm
17:34 16.2 °C 0.7 °C 1011.8 hPa Oeste 13.6 km/h 33.8 km/h 35% 0.0 mm
17:39 16.1 °C 0.6 °C 1011.8 hPa Oeste 13 km/h 35.2 km/h 35% 0.0 mm
17:44 15.9 °C 0.5 °C 1011.8 hPa Oeste 15.5 km/h 35.4 km/h 35% 0.0 mm
17:49 15.9 °C 0.4 °C 1011.8 hPa Oeste 16.1 km/h 37.8 km/h 35% 0.0 mm
17:54 15.8 °C 0.8 °C 1011.9 hPa Oeste 17.9 km/h 37 km/h 35.9% 0.0 mm
17:59 15.8 °C 0.7 °C 1011.9 hPa Oeste 18.4 km/h 35.9 km/h 36% 0.0 mm
18:04 15.7 °C 0.7 °C 1011.9 hPa ONO 18.1 km/h 35.4 km/h 36% 0.0 mm
18:09 15.6 °C 0.6 °C 1012.0 hPa Oeste 18 km/h 46.8 km/h 36% 0.0 mm
18:14 15.6 °C 0.6 °C 1012.0 hPa Oeste 21.7 km/h 46.7 km/h 36% 0.0 mm
18:19 15.5 °C 0.5 °C 1012.0 hPa ONO 22.5 km/h 44.9 km/h 36% 0.0 mm
18:24 15.5 °C 0.5 °C 1012.2 hPa Oeste 23.2 km/h 45.1 km/h 36.1% 0.0 mm
18:29 15.5 °C 0.8 °C 1012.2 hPa Oeste 23.3 km/h 35.4 km/h 37% 0.0 mm
18:34 15.4 °C 0.8 °C 1012.4 hPa Oeste 15.6 km/h 25.9 km/h 37% 0.0 mm
18:39 15.3 °C 0.9 °C 1012.4 hPa Oeste 14 km/h 25.7 km/h 37.5% 0.0 mm
18:44 15.2 °C 1 °C 1012.4 hPa Oeste 11.6 km/h 23.7 km/h 38% 0.0 mm
18:49 15.2 °C 0.9 °C 1012.4 hPa Oeste 11.1 km/h 28.6 km/h 38% 0.0 mm
18:54 15.2 °C 1 °C 1012.5 hPa ONO 12.7 km/h 29.6 km/h 38.1% 0.0 mm
18:59 15.1 °C 1.2 °C 1012.5 hPa Oeste 13 km/h 30.9 km/h 39% 0.0 mm
19:04 15.1 °C 1.2 °C 1012.5 hPa Oeste 14.6 km/h 38.9 km/h 39% 0.0 mm
19:09 15.1 °C 1.2 °C 1012.5 hPa Oeste 14.8 km/h 38.9 km/h 39% 0.0 mm
19:14 15 °C 1.2 °C 1012.5 hPa Oeste 14.8 km/h 29 km/h 39% 0.0 mm
19:19 14.9 °C 1.2 °C 1012.5 hPa Oeste 14.8 km/h 26.2 km/h 39.3% 0.0 mm
19:24 14.9 °C 1.2 °C 1012.5 hPa Oeste 12.7 km/h 31.5 km/h 39.5% 0.0 mm
19:29 14.9 °C 1.1 °C 1012.5 hPa Oeste 12.2 km/h 32.2 km/h 39.2% 0.0 mm
19:34 14.9 °C 1.4 °C 1012.5 hPa Oeste 15.4 km/h 30.6 km/h 39.9% 0.0 mm
19:39 14.9 °C 1.4 °C 1012.5 hPa Oeste 16.1 km/h 38.9 km/h 40% 0.0 mm
19:44 14.9 °C 1.4 °C 1012.5 hPa Oeste 18.5 km/h 38.6 km/h 40% 0.0 mm
19:49 14.9 °C 1.4 °C 1012.5 hPa Oeste 19 km/h 40.7 km/h 40% 0.0 mm
19:54 14.8 °C 1.4 °C 1012.9 hPa Oeste 18.2 km/h 40.2 km/h 40.2% 0.0 mm
19:59 14.8 °C 1.5 °C 1012.9 hPa Oeste 18 km/h 35.4 km/h 40.4% 0.0 mm
20:04 14.8 °C 1.7 °C 1012.9 hPa Oeste 18.9 km/h 35.4 km/h 41% 0.0 mm
20:09 14.8 °C 1.6 °C 1013.2 hPa Oeste 19 km/h 33.8 km/h 41% 0.0 mm
20:14 14.7 °C 1.6 °C 1013.2 hPa Oeste 18.2 km/h 33.8 km/h 41% 0.0 mm
20:19 14.7 °C 1.7 °C 1013.2 hPa Oeste 18 km/h 33.8 km/h 41.4% 0.0 mm
20:24 14.6 °C 1.8 °C 1013.2 hPa ONO 16 km/h 42.6 km/h 42% 0.0 mm
20:29 14.6 °C 1.8 °C 1012.9 hPa ONO 15.6 km/h 41.8 km/h 42% 0.0 mm
20:34 14.4 °C 1.7 °C 1013.1 hPa ONO 16.9 km/h 32.2 km/h 42.1% 0.0 mm
20:39 14.3 °C 1.9 °C 1013.1 hPa ONO 17.2 km/h 37 km/h 43% 0.0 mm
20:44 14.3 °C 1.9 °C 1013.1 hPa Oeste 16.3 km/h 37 km/h 43% 0.0 mm
20:49 14.2 °C 2 °C 1013.1 hPa ONO 16.1 km/h 31.5 km/h 43.7% 0.0 mm
20:54 14.2 °C 2.1 °C 1013.1 hPa Oeste 16.4 km/h 38.9 km/h 44% 0.0 mm
20:59 14.2 °C 2.1 °C 1013.0 hPa ONO 16.4 km/h 41.2 km/h 44% 0.0 mm
21:04 14.2 °C 2.1 °C 1013.0 hPa Oeste 21.8 km/h 41.8 km/h 44% 0.0 mm
21:09 14.1 °C 2.1 °C 1013.1 hPa ONO 22.5 km/h 35.2 km/h 44.4% 0.0 mm
21:14 14.1 °C 2.3 °C 1013.1 hPa ONO 19.6 km/h 38.9 km/h 45% 0.0 mm
21:19 14.1 °C 2.3 °C 1013.1 hPa ONO 19 km/h 38.6 km/h 45% 0.0 mm
21:24 13.9 °C 2.3 °C 1013.2 hPa Oeste 21.3 km/h 33.8 km/h 45.3% 0.0 mm
21:29 13.9 °C 2.4 °C 1013.2 hPa ONO 21.7 km/h 37.8 km/h 46% 0.0 mm
21:34 13.8 °C 2.4 °C 1013.2 hPa ONO 18.7 km/h 37 km/h 46% 0.0 mm
21:39 13.8 °C 2.4 °C 1013.2 hPa ONO 18 km/h 43.1 km/h 46% 0.0 mm
21:44 13.7 °C 2.3 °C 1013.0 hPa ONO 22.5 km/h 43.5 km/h 46% 0.0 mm
21:49 13.7 °C 2.4 °C 1013.0 hPa ONO 23.3 km/h 38.9 km/h 46.4% 0.0 mm
21:54 13.6 °C 2.5 °C 1013.0 hPa ONO 23.6 km/h 39.6 km/h 47% 0.0 mm
21:59 13.5 °C 2.4 °C 1012.8 hPa ONO 23.7 km/h 40.2 km/h 47% 0.0 mm
22:04 13.4 °C 2.3 °C 1012.8 hPa ONO 22.7 km/h 42 km/h 47% 0.0 mm
22:09 13.4 °C 2.3 °C 1013.1 hPa ONO 22.5 km/h 42.6 km/h 47% 0.0 mm
22:14 13.4 °C 2.3 °C 1013.1 hPa ONO 23.5 km/h 40.7 km/h 47% 0.0 mm
22:19 13.3 °C 2.2 °C 1013.1 hPa Oeste 23.7 km/h 40.7 km/h 47% 0.0 mm
22:24 13.3 °C 2.3 °C 1013.1 hPa Oeste 20.7 km/h 40.2 km/h 47.2% 0.0 mm
22:29 13.3 °C 2.2 °C 1013.1 hPa Oeste 20.1 km/h 37 km/h 47% 0.0 mm
22:34 13.3 °C 2.2 °C 1013.1 hPa Oeste 20.1 km/h 37 km/h 47% 0.0 mm
22:39 13.3 °C 2.2 °C 1013.1 hPa Oeste 20.1 km/h 40.7 km/h 47% 0.0 mm
22:44 13.2 °C 2.2 °C 1013.1 hPa Oeste 21.5 km/h 40.2 km/h 47% 0.0 mm
22:49 13.2 °C 2.3 °C 1013.1 hPa Oeste 21.7 km/h 32.2 km/h 47.6% 0.0 mm
22:54 13.1 °C 2.5 °C 1013.1 hPa ONO 18 km/h 29.6 km/h 48.7% 0.0 mm
22:59 13.1 °C 2.6 °C 1013.1 hPa Oeste 17.2 km/h 29 km/h 49% 0.0 mm
23:04 13.1 °C 2.6 °C 1013.1 hPa Oeste 15.1 km/h 30.6 km/h 49% 0.0 mm
23:09 13.1 °C 2.3 °C 1013.2 hPa Oeste 14.8 km/h 37.8 km/h 48% 0.0 mm
23:14 13.1 °C 2.3 °C 1013.2 hPa Oeste 18.3 km/h 37 km/h 48.2% 0.0 mm
23:19 12.9 °C 2.5 °C 1013.2 hPa Oeste 19 km/h 30.6 km/h 49% 0.0 mm
23:24 12.9 °C 2.4 °C 1013.2 hPa Oeste 16.2 km/h 38.9 km/h 49% 0.0 mm
23:29 12.9 °C 2.4 °C 1013.2 hPa OSO 15.6 km/h 38.6 km/h 49% 0.0 mm
23:34 12.8 °C 2.3 °C 1013.2 hPa ONO 14.3 km/h 28.2 km/h 49% 0.0 mm
23:39 12.8 °C 2.3 °C 1013.2 hPa Oeste 14 km/h 27.4 km/h 49% 0.0 mm
23:44 12.8 °C 2.3 °C 1013.2 hPa Oeste 10.3 km/h 19.3 km/h 49% 0.0 mm
23:49 12.7 °C 2.5 °C 1013.2 hPa NE 9.5 km/h 16.7 km/h 49.9% 0.0 mm
23:54 12.7 °C 2.5 °C 1013.7 hPa SE 7 km/h 16.1 km/h 50% 0.0 mm
23:59 12.6 °C 2.4 °C 1013.7 hPa ESE 6.5 km/h 13 km/h 50% 0.0 mm
Murcia-Puente Tocinos, Espa?a
Compliments of Weather Underground - 3.25 mb

La estación de MeteoMurcia.com, publica sus datos en los siguientes proyectos:

Weather Underground PWS IMURCIAP2 Meteoclimatic www.awekas.at

W3Counter
Web Analytics